createdAt,value
2022-10-02T00:01:27.859Z,11.70
2022-10-02T00:03:56.608Z,11.70
2022-10-02T00:06:27.014Z,11.70
2022-10-02T00:08:59.523Z,11.70
2022-10-02T00:11:33.145Z,11.60
2022-10-02T00:14:05.398Z,11.60
2022-10-02T00:16:36.865Z,11.70
2022-10-02T00:19:05.203Z,11.70
2022-10-02T00:21:48.866Z,11.80
2022-10-02T00:24:23.326Z,11.80
2022-10-02T00:26:58.039Z,11.80
2022-10-02T00:29:38.884Z,11.80
2022-10-02T00:32:21.494Z,11.70
2022-10-02T00:35:17.966Z,11.70
2022-10-02T00:37:55.291Z,11.70
2022-10-02T00:40:43.922Z,11.70
2022-10-02T00:43:32.055Z,11.80
2022-10-02T00:46:33.560Z,11.80
2022-10-02T00:49:15.733Z,11.80
2022-10-02T00:51:55.888Z,11.70
2022-10-02T00:54:49.210Z,11.70
2022-10-02T00:57:31.394Z,11.70
2022-10-02T01:00:07.278Z,11.60
2022-10-02T01:03:09.637Z,11.70
2022-10-02T01:05:38.215Z,11.70
2022-10-02T01:08:06.313Z,11.70
2022-10-02T01:10:36.201Z,11.70
2022-10-02T01:13:04.266Z,11.70
2022-10-02T01:15:35.481Z,11.70
2022-10-02T01:18:04.199Z,11.60
2022-10-02T01:20:38.787Z,11.70
2022-10-02T01:23:31.069Z,11.70
2022-10-02T01:26:00.965Z,11.70
2022-10-02T01:28:29.621Z,11.70
2022-10-02T01:31:02.499Z,11.70
2022-10-02T01:33:30.810Z,11.60
2022-10-02T01:35:58.977Z,11.60
2022-10-02T01:38:27.802Z,11.60
2022-10-02T01:40:55.730Z,11.60
2022-10-02T01:43:29.444Z,11.60
2022-10-02T01:46:08.768Z,11.60
2022-10-02T01:48:44.350Z,11.60
2022-10-02T01:51:28.318Z,11.70
2022-10-02T01:54:09.464Z,11.60
2022-10-02T01:56:49.520Z,11.60
2022-10-02T01:59:28.125Z,11.70
2022-10-02T02:02:11.997Z,11.70
2022-10-02T02:04:48.218Z,11.70
2022-10-02T02:07:28.234Z,11.70
2022-10-02T02:10:01.544Z,11.70
2022-10-02T02:12:40.228Z,11.70
2022-10-02T02:15:14.125Z,11.70
2022-10-02T02:17:49.171Z,11.70
2022-10-02T02:20:22.073Z,11.70
2022-10-02T02:22:54.308Z,11.70
2022-10-02T02:25:26.659Z,11.60
2022-10-02T02:27:58.217Z,11.60
2022-10-02T02:30:28.668Z,11.70
2022-10-02T02:33:02.973Z,11.70
2022-10-02T02:35:35.813Z,11.70
2022-10-02T02:38:07.480Z,11.80
2022-10-02T02:40:39.718Z,11.80
2022-10-02T02:43:11.233Z,11.70
2022-10-02T02:45:48.507Z,11.80
2022-10-02T02:48:22.303Z,11.80
2022-10-02T02:50:54.676Z,11.70
2022-10-02T02:53:27.084Z,11.70
2022-10-02T02:55:58.740Z,11.60
2022-10-02T02:58:30.006Z,11.70
2022-10-02T03:00:59.459Z,11.70
2022-10-02T03:03:27.584Z,11.70
2022-10-02T03:06:03.320Z,11.70
2022-10-02T03:08:36.405Z,11.80
2022-10-02T03:11:14.189Z,11.80
2022-10-02T03:13:53.651Z,11.70
2022-10-02T03:16:36.651Z,11.70
2022-10-02T03:19:19.068Z,11.70
2022-10-02T03:21:55.811Z,11.70
2022-10-02T03:24:29.879Z,11.70
2022-10-02T03:27:05.521Z,11.70
2022-10-02T03:29:37.900Z,11.80
2022-10-02T03:32:09.503Z,11.80
2022-10-02T03:34:39.084Z,11.70
2022-10-02T03:37:08.176Z,11.80
2022-10-02T03:39:36.164Z,11.70
2022-10-02T03:42:04.404Z,11.70
2022-10-02T03:44:32.412Z,11.70
2022-10-02T03:47:00.356Z,11.70
2022-10-02T03:49:29.895Z,11.80
2022-10-02T03:51:57.856Z,11.70
2022-10-02T03:54:25.915Z,11.70
2022-10-02T03:56:56.777Z,11.80
2022-10-02T03:59:43.815Z,11.80
2022-10-02T04:02:22.351Z,11.70
2022-10-02T04:04:57.488Z,11.60
2022-10-02T04:07:31.835Z,11.60
2022-10-02T04:10:10.116Z,11.60
2022-10-02T04:12:41.919Z,11.50
2022-10-02T04:15:20.214Z,11.50
2022-10-02T04:17:51.775Z,11.40
2022-10-02T04:20:27.507Z,11.50
2022-10-02T04:23:03.099Z,11.60
2022-10-02T04:25:35.446Z,11.50
2022-10-02T04:28:07.326Z,11.50
2022-10-02T04:30:35.407Z,11.60
2022-10-02T04:33:12.939Z,11.60
2022-10-02T04:35:52.998Z,11.60
2022-10-02T04:38:38.819Z,11.60
2022-10-02T04:41:24.283Z,11.50
2022-10-02T04:44:05.459Z,11.50
2022-10-02T04:47:11.922Z,11.40
2022-10-02T04:50:11.732Z,11.30
2022-10-02T04:53:02.788Z,11.30
2022-10-02T04:56:00.738Z,11.30
2022-10-02T04:58:46.574Z,11.30
2022-10-02T05:01:24.490Z,11.20
2022-10-02T05:04:10.999Z,11.20
2022-10-02T05:06:54.190Z,11.20
2022-10-02T05:09:30.695Z,11.20
2022-10-02T05:12:32.111Z,11.10
2022-10-02T05:15:15.259Z,11.10
2022-10-02T05:18:07.693Z,11.10
2022-10-02T05:20:55.971Z,11.00
2022-10-02T05:23:36.665Z,11.10
2022-10-02T05:26:26.101Z,11.10
2022-10-02T05:29:13.038Z,11.00
2022-10-02T05:31:55.319Z,11.00
2022-10-02T05:34:38.706Z,10.90
2022-10-02T05:37:23.454Z,11.00
2022-10-02T05:39:57.217Z,11.00
2022-10-02T05:42:33.746Z,11.00
2022-10-02T05:45:04.497Z,11.10
2022-10-02T05:47:36.577Z,11.10
2022-10-02T05:50:15.421Z,11.20
2022-10-02T05:52:51.982Z,11.30
2022-10-02T05:55:24.229Z,11.40
2022-10-02T05:57:58.581Z,11.40
2022-10-02T06:00:33.632Z,11.40
2022-10-02T06:03:10.932Z,11.40
2022-10-02T06:05:47.225Z,11.40
2022-10-02T06:08:18.767Z,11.50
2022-10-02T06:10:50.266Z,11.50
2022-10-02T06:13:24.312Z,11.50
2022-10-02T06:15:56.020Z,11.60
2022-10-02T06:18:27.855Z,11.60
2022-10-02T06:21:00.557Z,11.60
2022-10-02T06:23:36.550Z,11.60
2022-10-02T06:26:10.642Z,11.60
2022-10-02T06:28:44.006Z,11.70
2022-10-02T06:31:17.068Z,11.70
2022-10-02T06:33:46.246Z,11.80
2022-10-02T06:36:49.941Z,11.80
2022-10-02T06:39:31.739Z,11.90
2022-10-02T06:42:11.393Z,11.90
2022-10-02T06:44:49.106Z,11.90
2022-10-02T06:47:34.293Z,11.90
2022-10-02T06:50:21.089Z,11.90
2022-10-02T06:52:56.698Z,12.00
2022-10-02T06:55:43.332Z,12.00
2022-10-02T06:58:26.734Z,12.10
2022-10-02T07:01:05.439Z,12.10
2022-10-02T07:03:49.502Z,12.10
2022-10-02T07:06:42.760Z,12.10
2022-10-02T07:09:40.498Z,12.10
2022-10-02T07:12:27.257Z,12.10
2022-10-02T07:15:10.993Z,12.10
2022-10-02T07:17:53.409Z,12.10
2022-10-02T07:20:35.580Z,12.10
2022-10-02T07:23:27.845Z,12.10
2022-10-02T07:26:21.470Z,12.20
2022-10-02T07:28:59.805Z,12.20
2022-10-02T07:31:41.671Z,12.10
2022-10-02T07:34:30.625Z,12.20
2022-10-02T07:37:10.812Z,12.20
2022-10-02T07:39:50.841Z,12.20
2022-10-02T07:42:37.462Z,12.20
2022-10-02T07:45:22.586Z,12.30
2022-10-02T07:48:15.217Z,12.30
2022-10-02T07:51:01.004Z,12.40
2022-10-02T07:53:39.080Z,12.40
2022-10-02T07:56:10.672Z,12.40
2022-10-02T07:58:42.892Z,12.40
2022-10-02T08:01:15.128Z,12.50
2022-10-02T08:03:49.872Z,12.50
2022-10-02T08:06:20.140Z,12.50
2022-10-02T08:08:53.205Z,12.50
2022-10-02T08:11:28.388Z,12.50
2022-10-02T08:14:00.244Z,12.50
2022-10-02T08:16:34.670Z,12.60
2022-10-02T08:19:05.653Z,12.60
2022-10-02T08:21:41.467Z,12.60
2022-10-02T08:24:14.893Z,12.60
2022-10-02T08:26:46.776Z,12.60
2022-10-02T08:29:20.711Z,12.70
2022-10-02T08:31:52.176Z,12.70
2022-10-02T08:34:22.271Z,12.90
2022-10-02T08:37:13.266Z,13.00
2022-10-02T08:40:22.299Z,13.20
2022-10-02T08:43:45.135Z,13.30
2022-10-02T08:46:38.159Z,13.30
2022-10-02T08:49:39.866Z,13.30
2022-10-02T08:52:42.414Z,13.20
2022-10-02T08:55:38.808Z,13.20
2022-10-02T08:58:48.254Z,13.20
2022-10-02T09:01:51.071Z,13.10
2022-10-02T09:05:03.676Z,13.10
2022-10-02T09:08:08.178Z,13.10
2022-10-02T09:11:06.119Z,13.10
2022-10-02T09:14:10.806Z,13.00
2022-10-02T09:16:58.375Z,13.00
2022-10-02T09:19:42.010Z,12.90
2022-10-02T09:22:32.130Z,12.90
2022-10-02T09:25:28.751Z,13.00
2022-10-02T09:28:32.103Z,13.10
2022-10-02T09:31:41.682Z,13.20
2022-10-02T09:34:34.068Z,13.30
2022-10-02T09:37:50.437Z,13.30
2022-10-02T09:40:55.394Z,13.30
2022-10-02T09:43:53.043Z,13.20
2022-10-02T09:46:52.918Z,13.10
2022-10-02T09:49:49.189Z,13.00
2022-10-02T09:53:08.136Z,12.90
2022-10-02T09:56:13.234Z,12.90
2022-10-02T09:59:28.398Z,12.90
2022-10-02T10:02:31.692Z,12.80
2022-10-02T10:05:34.411Z,12.90
2022-10-02T10:08:37.375Z,12.90
2022-10-02T10:11:29.335Z,12.90
2022-10-02T10:14:37.016Z,13.00
2022-10-02T10:17:41.910Z,13.20
2022-10-02T10:20:51.822Z,13.40
2022-10-02T10:23:57.735Z,13.50
2022-10-02T10:27:07.430Z,13.80
2022-10-02T10:30:04.530Z,14.10
2022-10-02T10:33:04.690Z,14.30
2022-10-02T10:35:52.503Z,14.30
2022-10-02T10:38:39.899Z,14.30
2022-10-02T10:41:32.467Z,14.20
2022-10-02T10:44:29.746Z,14.20
2022-10-02T10:47:23.066Z,14.30
2022-10-02T10:50:19.047Z,14.30
2022-10-02T10:53:14.458Z,14.40
2022-10-02T10:55:59.184Z,14.50
2022-10-02T10:58:44.862Z,14.80
2022-10-02T11:01:18.720Z,15.40
2022-10-02T11:04:09.838Z,15.90
2022-10-02T11:07:16.451Z,16.40
2022-10-02T11:10:09.470Z,17.00
2022-10-02T11:13:03.094Z,17.20
2022-10-02T11:16:09.011Z,16.90
2022-10-02T11:19:03.122Z,16.50
2022-10-02T11:21:59.085Z,16.20
2022-10-02T11:24:48.937Z,16.00
2022-10-02T11:27:31.614Z,15.90
2022-10-02T11:30:17.897Z,16.00
2022-10-02T11:33:10.746Z,16.20
2022-10-02T11:35:55.338Z,16.40
2022-10-02T11:38:55.026Z,16.30
2022-10-02T11:41:32.507Z,16.30
2022-10-02T11:44:12.143Z,16.20
2022-10-02T11:47:11.969Z,16.20
2022-10-02T11:49:59.158Z,16.10
2022-10-02T11:52:59.750Z,16.10
2022-10-02T11:55:43.822Z,16.30
2022-10-02T11:58:22.038Z,16.50
2022-10-02T12:01:08.841Z,16.40
2022-10-02T12:03:56.785Z,16.10
2022-10-02T12:06:49.088Z,15.90
2022-10-02T12:09:29.410Z,15.70
2022-10-02T12:12:12.111Z,15.60
2022-10-02T12:14:48.473Z,15.50
2022-10-02T12:17:32.189Z,15.50
2022-10-02T12:20:30.954Z,15.40
2022-10-02T12:23:25.979Z,15.40
2022-10-02T12:26:17.041Z,15.50
2022-10-02T12:28:56.837Z,16.10
2022-10-02T12:31:32.260Z,17.00
2022-10-02T12:34:08.829Z,17.60
2022-10-02T12:36:56.388Z,17.90
2022-10-02T12:39:43.508Z,18.20
2022-10-02T12:42:42.061Z,18.40
2022-10-02T12:45:28.239Z,18.20
2022-10-02T12:48:14.392Z,17.90
2022-10-02T12:51:05.391Z,17.70
2022-10-02T12:54:17.959Z,17.70
2022-10-02T12:57:38.892Z,17.90
2022-10-02T13:00:15.604Z,18.00
2022-10-02T13:03:14.929Z,17.90
2022-10-02T13:06:03.541Z,18.00
2022-10-02T13:08:52.409Z,18.20
2022-10-02T13:11:33.786Z,18.50
2022-10-02T13:14:22.360Z,18.80
2022-10-02T13:17:10.385Z,19.10
2022-10-02T13:19:49.539Z,19.30
2022-10-02T13:22:23.817Z,19.60
2022-10-02T13:25:04.259Z,19.80
2022-10-02T13:27:41.203Z,20.00
2022-10-02T13:30:16.540Z,20.20
2022-10-02T13:33:08.388Z,20.20
2022-10-02T13:35:51.788Z,19.90
2022-10-02T13:38:43.565Z,19.60
2022-10-02T13:41:22.859Z,19.20
2022-10-02T13:44:00.615Z,18.80
2022-10-02T13:46:45.159Z,18.70
2022-10-02T13:49:25.237Z,18.80
2022-10-02T13:51:59.331Z,18.80
2022-10-02T13:54:59.565Z,18.90
2022-10-02T13:57:44.895Z,19.00
2022-10-02T14:00:24.941Z,18.70
2022-10-02T14:03:08.043Z,18.50
2022-10-02T14:05:45.003Z,18.20
2022-10-02T14:08:55.328Z,17.90
2022-10-02T14:11:33.851Z,17.80
2022-10-02T14:14:16.467Z,17.90
2022-10-02T14:16:56.947Z,18.10
2022-10-02T14:19:52.860Z,18.20
2022-10-02T14:22:41.460Z,18.30
2022-10-02T14:25:28.923Z,18.20
2022-10-02T14:28:17.841Z,18.20
2022-10-02T14:31:02.393Z,18.10
2022-10-02T14:33:49.147Z,18.10
2022-10-02T14:36:22.146Z,18.00
2022-10-02T14:39:11.775Z,17.70
2022-10-02T14:41:52.782Z,17.30
2022-10-02T14:45:00.535Z,16.70
2022-10-02T14:47:46.014Z,16.20
2022-10-02T14:50:29.855Z,15.70
2022-10-02T14:53:21.633Z,15.30
2022-10-02T14:56:22.206Z,14.90
2022-10-02T14:59:09.792Z,14.70
2022-10-02T15:01:44.258Z,14.50
2022-10-02T15:04:31.753Z,14.40
2022-10-02T15:07:12.170Z,14.30
2022-10-02T15:10:09.490Z,14.20
2022-10-02T15:12:49.587Z,14.10
2022-10-02T15:15:24.027Z,13.80
2022-10-02T15:18:14.867Z,13.60
2022-10-02T15:20:59.410Z,13.40
2022-10-02T15:23:46.477Z,13.30
2022-10-02T15:26:35.899Z,13.00
2022-10-02T15:29:21.288Z,12.90
2022-10-02T15:32:21.304Z,12.90
2022-10-02T15:34:57.008Z,13.00
2022-10-02T15:37:29.529Z,12.90
2022-10-02T15:40:14.336Z,12.70
2022-10-02T15:42:50.140Z,12.50
2022-10-02T15:45:41.725Z,12.60
2022-10-02T15:48:52.399Z,12.70
2022-10-02T15:51:33.153Z,12.80
2022-10-02T15:54:14.501Z,12.70
2022-10-02T15:57:07.252Z,12.80
2022-10-02T15:59:51.388Z,12.90
2022-10-02T16:02:36.987Z,12.90
2022-10-02T16:05:21.802Z,12.90
2022-10-02T16:08:13.360Z,12.80
2022-10-02T16:11:01.784Z,12.70
2022-10-02T16:13:48.151Z,12.70
2022-10-02T16:16:47.366Z,12.70
2022-10-02T16:19:24.016Z,12.70
2022-10-02T16:22:12.290Z,12.60
2022-10-02T16:25:03.393Z,12.70
2022-10-02T16:27:48.616Z,12.70
2022-10-02T16:30:18.797Z,12.60
2022-10-02T16:33:11.029Z,12.30
2022-10-02T16:36:08.247Z,11.90
2022-10-02T16:38:48.548Z,11.90
2022-10-02T16:41:38.254Z,11.90
2022-10-02T16:44:25.315Z,11.80
2022-10-02T16:46:57.701Z,11.80
2022-10-02T16:49:33.144Z,11.80
2022-10-02T16:52:11.603Z,11.80
2022-10-02T16:54:46.781Z,11.80
2022-10-02T16:57:25.316Z,11.80
2022-10-02T17:00:02.239Z,11.70
2022-10-02T17:02:43.513Z,11.80
2022-10-02T17:05:24.750Z,11.90
2022-10-02T17:08:02.471Z,11.90
2022-10-02T17:10:39.173Z,11.90
2022-10-02T17:13:19.564Z,11.80
2022-10-02T17:15:53.070Z,11.90
2022-10-02T17:18:33.404Z,11.70
2022-10-02T17:21:12.856Z,11.70
2022-10-02T17:23:50.907Z,11.80
2022-10-02T17:26:30.827Z,11.90
2022-10-02T17:29:08.323Z,12.00
2022-10-02T17:31:46.122Z,11.80
2022-10-02T17:34:23.603Z,11.60
2022-10-02T17:37:07.095Z,11.60
2022-10-02T17:39:56.981Z,11.70
2022-10-02T17:42:41.192Z,11.70
2022-10-02T17:45:27.261Z,11.60
2022-10-02T17:48:05.903Z,11.60
2022-10-02T17:50:51.021Z,11.60
2022-10-02T17:53:52.737Z,11.60
2022-10-02T17:56:49.954Z,11.40
2022-10-02T17:59:45.592Z,11.40
2022-10-02T18:02:25.921Z,11.30
2022-10-02T18:05:14.174Z,11.20
2022-10-02T18:07:55.807Z,11.10
2022-10-02T18:10:32.216Z,11.10
2022-10-02T18:13:22.419Z,11.10
2022-10-02T18:16:22.308Z,11.00
2022-10-02T18:19:18.284Z,10.90
2022-10-02T18:21:57.365Z,11.00
2022-10-02T18:24:46.001Z,10.90
2022-10-02T18:27:37.693Z,10.90
2022-10-02T18:30:16.238Z,10.90
2022-10-02T18:33:17.194Z,10.90
2022-10-02T18:35:54.861Z,10.70
2022-10-02T18:38:31.029Z,10.80
2022-10-02T18:41:09.616Z,10.80
2022-10-02T18:44:09.264Z,10.80
2022-10-02T18:46:50.438Z,10.70
2022-10-02T18:49:35.806Z,10.60
2022-10-02T18:52:30.913Z,10.60
2022-10-02T18:55:09.713Z,10.50
2022-10-02T18:57:47.741Z,10.60
2022-10-02T19:00:19.797Z,10.60
2022-10-02T19:03:06.574Z,10.50
2022-10-02T19:05:38.782Z,10.50
2022-10-02T19:08:17.971Z,10.40
2022-10-02T19:10:47.933Z,10.30
2022-10-02T19:13:23.827Z,10.20
2022-10-02T19:15:54.247Z,10.40
2022-10-02T19:18:25.426Z,10.40
2022-10-02T19:20:57.661Z,10.50
2022-10-02T19:23:30.344Z,10.60
2022-10-02T19:26:03.219Z,10.50
2022-10-02T19:28:33.345Z,10.50
2022-10-02T19:31:05.519Z,10.50
2022-10-02T19:33:43.406Z,10.50
2022-10-02T19:36:18.971Z,10.50
2022-10-02T19:38:53.799Z,10.40
2022-10-02T19:41:22.745Z,10.40
2022-10-02T19:43:57.058Z,10.40
2022-10-02T19:46:37.186Z,10.40
2022-10-02T19:49:08.370Z,10.50
2022-10-02T19:51:44.840Z,10.30
2022-10-02T19:54:18.121Z,10.30
2022-10-02T19:56:47.531Z,10.30
2022-10-02T19:59:19.518Z,10.20
2022-10-02T20:01:51.969Z,10.20
2022-10-02T20:04:24.033Z,10.20
2022-10-02T20:06:56.909Z,10.20
2022-10-02T20:09:34.584Z,10.20
2022-10-02T20:12:08.336Z,10.20
2022-10-02T20:14:40.914Z,10.20
2022-10-02T20:17:10.218Z,10.30
2022-10-02T20:19:45.251Z,10.20
2022-10-02T20:22:22.727Z,10.20
2022-10-02T20:24:55.243Z,10.20
2022-10-02T20:27:29.144Z,10.20
2022-10-02T20:30:04.266Z,10.20
2022-10-02T20:32:37.396Z,10.20
2022-10-02T20:35:12.719Z,10.20
2022-10-02T20:37:43.031Z,10.20
2022-10-02T20:40:16.944Z,10.10
2022-10-02T20:42:53.333Z,10.10
2022-10-02T20:45:26.274Z,9.90
2022-10-02T20:48:25.128Z,9.90
2022-10-02T20:51:01.951Z,9.90
2022-10-02T20:54:07.932Z,9.90
2022-10-02T20:57:06.511Z,9.90
2022-10-02T21:00:12.327Z,9.80
2022-10-02T21:03:07.019Z,9.80
2022-10-02T21:06:17.883Z,9.90
2022-10-02T21:09:16.167Z,9.90
2022-10-02T21:12:05.316Z,9.90
2022-10-02T21:15:03.440Z,9.80
2022-10-02T21:18:06.969Z,9.80
2022-10-02T21:20:55.416Z,9.80
2022-10-02T21:24:07.136Z,9.70
2022-10-02T21:27:04.510Z,9.70
2022-10-02T21:29:59.988Z,9.70
2022-10-02T21:32:45.684Z,9.70
2022-10-02T21:35:31.268Z,9.70
2022-10-02T21:38:19.816Z,9.70
2022-10-02T21:41:27.218Z,9.70
2022-10-02T21:44:30.785Z,9.70
2022-10-02T21:47:28.538Z,9.70
2022-10-02T21:50:31.570Z,9.70
2022-10-02T21:53:33.078Z,9.70
2022-10-02T21:56:30.758Z,9.80
2022-10-02T21:59:31.545Z,9.70
2022-10-02T22:02:31.649Z,9.60
2022-10-02T22:05:30.280Z,9.60
2022-10-02T22:08:04.929Z,9.70
2022-10-02T22:10:44.291Z,9.60
2022-10-02T22:13:25.327Z,9.60
2022-10-02T22:16:04.255Z,9.60
2022-10-02T22:18:45.509Z,9.60
2022-10-02T22:21:26.313Z,9.70
2022-10-02T22:24:18.521Z,9.60
2022-10-02T22:27:03.857Z,9.60
2022-10-02T22:29:44.570Z,9.70
2022-10-02T22:32:48.751Z,9.70
2022-10-02T22:35:29.919Z,9.70
2022-10-02T22:38:11.237Z,9.80
2022-10-02T22:40:52.094Z,9.80
2022-10-02T22:43:30.133Z,9.80
2022-10-02T22:46:03.488Z,9.80
2022-10-02T22:48:40.057Z,9.80
2022-10-02T22:51:17.813Z,9.80
2022-10-02T22:53:50.714Z,9.90
2022-10-02T22:56:30.319Z,9.90
2022-10-02T22:59:07.312Z,9.90
2022-10-02T23:01:44.929Z,9.90
2022-10-02T23:04:21.625Z,9.90
2022-10-02T23:06:55.992Z,10.00
2022-10-02T23:09:29.104Z,10.00
2022-10-02T23:12:05.908Z,10.00
2022-10-02T23:14:45.417Z,10.00
2022-10-02T23:17:18.672Z,10.10
2022-10-02T23:19:49.741Z,10.00
2022-10-02T23:22:28.849Z,10.00
2022-10-02T23:25:05.360Z,10.10
2022-10-02T23:27:42.480Z,10.10
2022-10-02T23:30:13.800Z,10.00
2022-10-02T23:32:50.325Z,10.00
2022-10-02T23:35:27.357Z,10.10
2022-10-02T23:38:03.828Z,10.10
2022-10-02T23:40:52.304Z,10.00
2022-10-02T23:43:30.031Z,10.00
2022-10-02T23:46:03.808Z,9.90
2022-10-02T23:48:33.611Z,9.90
2022-10-02T23:51:15.320Z,9.80
2022-10-02T23:54:04.440Z,9.90
2022-10-02T23:56:56.539Z,9.90
2022-10-02T23:59:41.616Z,9.90
